Morning Clara — 9V7564 — position and weather

sailwx.info

Track history (hours):
 
Tides and Currents Weather Stations Pressure Air Temp Water Temp Dewpoint Dewpoint Depression Visibility Wind Speed Wind Dir Waves Ship Positions

Morning Clara

Last reported at 2016-Aug-31 21:32 UTC. Time now 2016-Aug-31 21:50 UTC.
Position N 49°11' W 122°55'.

Length 200 m; draft 9 m.

Type: Cargo ship. MMSI: 564254000.

Date/timePositionNaut miles runAvg speedWind from/ knotsBaromVisibWave heightAir tempDewpointWater temp
2016-Aug-31 21:32N 49°11' W 122°55'0 0.0
2016-Aug-31 20:32N 49°11' W 122°55'0 0.0
2016-Aug-31 19:33N 49°11' W 122°55'0 0.0
2016-Aug-31 18:30N 49°11' W 122°55'0 0.0
2016-Aug-31 17:32N 49°11' W 122°55'0 0.0
2016-Aug-31 16:32N 49°11' W 122°55'0 0.0
2016-Aug-31 15:32N 49°11' W 122°55'0 0.0
2016-Aug-31 14:32N 49°11' W 122°55'0 0.0
2016-Aug-31 13:32N 49°11' W 122°55'0 0.0
2016-Aug-31 12:32N 49°11' W 122°55'0 0.0
2016-Aug-31 11:32N 49°11' W 122°55'0 0.0
2016-Aug-31 10:32N 49°11' W 122°55'0 0.0
2016-Aug-31 09:32N 49°11' W 122°55'0 0.0
2016-Aug-31 08:32N 49°11' W 122°55'0 0.0
2016-Aug-31 07:32N 49°11' W 122°55'0 0.0
2016-Aug-31 06:32N 49°11' W 122°55'0 0.0
2016-Aug-31 05:32N 49°11' W 122°55'0 0.0
2016-Aug-31 04:32N 49°11' W 122°55'0 0.0
2016-Aug-31 03:32N 49°11' W 122°55'0 0.0
2016-Aug-31 02:32N 49°11' W 122°55'2 1.7
2016-Aug-31 01:34N 49°10' W 122°57'1211.7
2016-Aug-31 00:33N 49°08' W 123°14'9 9.0
2016-Aug-30 23:33N 48°59' W 123°13'1515.0
2016-Aug-30 22:33N 48°45' W 123°05'1716.5
2016-Aug-30 21:33N 48°29' W 123°10'1212.3
2016-Aug-30 20:34N 48°20' W 123°24'7 6.7
2016-Aug-30 19:33N 48°14' W 123°28'1311.4
2016-Aug-30 18:25N 48°14' W 123°47'1011.4
2016-Aug-30 17:33N 48°16' W 124°02'1515.6
2016-Aug-30 16:34N 48°22' W 124°23'1414.4
2016-Aug-30 15:33N 48°28' W 124°43'1414.0
2016-Aug-30 14:34N 48°25' W 125°03'1817.2
2016-Aug-30 13:30N 48°10' W 125°18'5115.3
2016-Aug-30 10:12N 47°20' W 125°13'1117.2
2016-Aug-30 09:34N 47°10' W 125°06'1717.0
2016-Aug-30 08:34N 46°54' W 124°55'1716.7
2016-Aug-30 07:34N 46°39' W 124°45'1615.8
2016-Aug-30 06:34N 46°26' W 124°32'1615.9
2016-Aug-30 05:33N 46°13' W 124°18'1010.1
2016-Aug-30 04:33N 46°15' W 124°04'1010.5
2016-Aug-30 03:34N 46°12' W 123°50'1312.9
2016-Aug-30 02:33N 46°16' W 123°32'1111.1
2016-Aug-30 01:33N 46°09' W 123°20'1414.0
2016-Aug-30 00:33N 46°08' W 122°60'9 9.4
2016-Aug-29 23:33N 46°00' W 122°51'1111.1
2016-Aug-29 22:33N 45°50' W 122°48'1110.6
2016-Aug-29 21:32N 45°39' W 122°45'0 0.0
2016-Aug-29 20:26N 45°39' W 122°45'0 0.0
2016-Aug-29 19:32N 45°39' W 122°45'0 0.0
2016-Aug-29 18:32N 45°39' W 122°45'0 0.0
2016-Aug-29 17:32N 45°39' W 122°45'0 0.0
2016-Aug-29 16:17N 45°39' W 122°45'0 0.0
2016-Aug-29 15:32N 45°39' W 122°45'0 0.0
2016-Aug-29 14:29N 45°39' W 122°45'0 0.0
2016-Aug-29 13:26N 45°39' W 122°45'0 0.0
2016-Aug-29 12:32N 45°39' W 122°45'0 0.0
2016-Aug-29 11:32N 45°39' W 122°45'0 0.0
2016-Aug-29 10:29N 45°39' W 122°45'0 0.0
2016-Aug-29 09:32N 45°39' W 122°45'0 0.0
2016-Aug-29 08:32N 45°39' W 122°45'0 0.0
2016-Aug-29 07:32N 45°39' W 122°45'0 0.0
2016-Aug-29 06:32N 45°39' W 122°45'0 0.0
2016-Aug-29 05:32N 45°39' W 122°45'0 0.0
2016-Aug-29 04:29N 45°39' W 122°45'0 0.0
2016-Aug-29 03:32N 45°39' W 122°45'0 0.0
2016-Aug-29 02:32N 45°39' W 122°45'0 0.1
2016-Aug-29 01:33N 45°39' W 122°45'7 7.5
2016-Aug-29 00:34N 45°46' W 122°46'1212.3
2016-Aug-28 23:33N 45°58' W 122°50'10 9.7
2016-Aug-28 22:33N 46°06' W 122°58'1212.3
2016-Aug-28 21:33N 46°10' W 123°15'1010.4
2016-Aug-28 20:34N 46°15' W 123°27'1413.8
2016-Aug-28 19:34N 46°13' W 123°47'9 9.3
2016-Aug-28 18:33N 46°15' W 123°60'1313.0
2016-Aug-28 17:34N 46°12' W 124°18'1312.9
2016-Aug-28 16:34N 46°11' W 124°37'1212.0
2016-Aug-28 15:33N 46°12' W 124°54'1313.2
2016-Aug-28 14:33N 46°11' W 125°13'1515.1
2016-Aug-28 13:34N 46°11' W 125°35'1514.7
2016-Aug-28 12:34N 46°12' W 125°56'1514.7
2016-Aug-28 11:33N 46°12' W 126°17'1515.5
2016-Aug-28 10:34N 46°11' W 126°40'1615.6
2016-Aug-28 09:33N 46°11' W 127°02'1915.8
2016-Aug-28 08:22N 46°11' W 127°30'  
Track history (hours):
 
Tides and Currents Weather Stations Pressure Air Temp Water Temp Dewpoint Dewpoint Depression Visibility Wind Speed Wind Dir Waves Ship Positions

Morning Clara

Last reported at 2016-Aug-31 21:32 UTC. Time now 2016-Aug-31 21:50 UTC.
Position N 49°11' W 122°55'.

Length 200 m; draft 9 m.

Type: Cargo ship. MMSI: 564254000.

Date/timePositionNaut miles runAvg speedWind from/ knotsBaromVisibWave heightAir tempDewpointWater temp
2016-Aug-31 21:32N 49°11' W 122°55'0 0.0
2016-Aug-31 20:32N 49°11' W 122°55'0 0.0
2016-Aug-31 19:33N 49°11' W 122°55'0 0.0
2016-Aug-31 18:30N 49°11' W 122°55'0 0.0
2016-Aug-31 17:32N 49°11' W 122°55'0 0.0
2016-Aug-31 16:32N 49°11' W 122°55'0 0.0
2016-Aug-31 15:32N 49°11' W 122°55'0 0.0
2016-Aug-31 14:32N 49°11' W 122°55'0 0.0
2016-Aug-31 13:32N 49°11' W 122°55'0 0.0
2016-Aug-31 12:32N 49°11' W 122°55'0 0.0
2016-Aug-31 11:32N 49°11' W 122°55'0 0.0
2016-Aug-31 10:32N 49°11' W 122°55'0 0.0
2016-Aug-31 09:32N 49°11' W 122°55'0 0.0
2016-Aug-31 08:32N 49°11' W 122°55'0 0.0
2016-Aug-31 07:32N 49°11' W 122°55'0 0.0
2016-Aug-31 06:32N 49°11' W 122°55'0 0.0
2016-Aug-31 05:32N 49°11' W 122°55'0 0.0
2016-Aug-31 04:32N 49°11' W 122°55'0 0.0
2016-Aug-31 03:32N 49°11' W 122°55'0 0.0
2016-Aug-31 02:32N 49°11' W 122°55'2 1.7
2016-Aug-31 01:34N 49°10' W 122°57'1211.7
2016-Aug-31 00:33N 49°08' W 123°14'9 9.0
2016-Aug-30 23:33N 48°59' W 123°13'1515.0
2016-Aug-30 22:33N 48°45' W 123°05'1716.5
2016-Aug-30 21:33N 48°29' W 123°10'1212.3
2016-Aug-30 20:34N 48°20' W 123°24'7 6.7
2016-Aug-30 19:33N 48°14' W 123°28'1311.4
2016-Aug-30 18:25N 48°14' W 123°47'1011.4
2016-Aug-30 17:33N 48°16' W 124°02'1515.6
2016-Aug-30 16:34N 48°22' W 124°23'1414.4
2016-Aug-30 15:33N 48°28' W 124°43'1414.0
2016-Aug-30 14:34N 48°25' W 125°03'1817.2
2016-Aug-30 13:30N 48°10' W 125°18'5115.3
2016-Aug-30 10:12N 47°20' W 125°13'1117.2
2016-Aug-30 09:34N 47°10' W 125°06'1717.0
2016-Aug-30 08:34N 46°54' W 124°55'1716.7
2016-Aug-30 07:34N 46°39' W 124°45'1615.8
2016-Aug-30 06:34N 46°26' W 124°32'1615.9
2016-Aug-30 05:33N 46°13' W 124°18'1010.1
2016-Aug-30 04:33N 46°15' W 124°04'1010.5
2016-Aug-30 03:34N 46°12' W 123°50'1312.9
2016-Aug-30 02:33N 46°16' W 123°32'1111.1
2016-Aug-30 01:33N 46°09' W 123°20'1414.0
2016-Aug-30 00:33N 46°08' W 122°60'9 9.4
2016-Aug-29 23:33N 46°00' W 122°51'1111.1
2016-Aug-29 22:33N 45°50' W 122°48'1110.6
2016-Aug-29 21:32N 45°39' W 122°45'0 0.0
2016-Aug-29 20:26N 45°39' W 122°45'0 0.0
2016-Aug-29 19:32N 45°39' W 122°45'0 0.0
2016-Aug-29 18:32N 45°39' W 122°45'0 0.0
2016-Aug-29 17:32N 45°39' W 122°45'0 0.0
2016-Aug-29 16:17N 45°39' W 122°45'0 0.0
2016-Aug-29 15:32N 45°39' W 122°45'0 0.0
2016-Aug-29 14:29N 45°39' W 122°45'0 0.0
2016-Aug-29 13:26N 45°39' W 122°45'0 0.0
2016-Aug-29 12:32N 45°39' W 122°45'0 0.0
2016-Aug-29 11:32N 45°39' W 122°45'0 0.0
2016-Aug-29 10:29N 45°39' W 122°45'0 0.0
2016-Aug-29 09:32N 45°39' W 122°45'0 0.0
2016-Aug-29 08:32N 45°39' W 122°45'0 0.0
2016-Aug-29 07:32N 45°39' W 122°45'0 0.0
2016-Aug-29 06:32N 45°39' W 122°45'0 0.0
2016-Aug-29 05:32N 45°39' W 122°45'0 0.0
2016-Aug-29 04:29N 45°39' W 122°45'0 0.0
2016-Aug-29 03:32N 45°39' W 122°45'0 0.0
2016-Aug-29 02:32N 45°39' W 122°45'0 0.1
2016-Aug-29 01:33N 45°39' W 122°45'7 7.5
2016-Aug-29 00:34N 45°46' W 122°46'1212.3
2016-Aug-28 23:33N 45°58' W 122°50'10 9.7
2016-Aug-28 22:33N 46°06' W 122°58'1212.3
2016-Aug-28 21:33N 46°10' W 123°15'1010.4
2016-Aug-28 20:34N 46°15' W 123°27'1413.8
2016-Aug-28 19:34N 46°13' W 123°47'9 9.3
2016-Aug-28 18:33N 46°15' W 123°60'1313.0
2016-Aug-28 17:34N 46°12' W 124°18'1312.9
2016-Aug-28 16:34N 46°11' W 124°37'1212.0
2016-Aug-28 15:33N 46°12' W 124°54'1313.2
2016-Aug-28 14:33N 46°11' W 125°13'1515.1
2016-Aug-28 13:34N 46°11' W 125°35'1514.7
2016-Aug-28 12:34N 46°12' W 125°56'1514.7
2016-Aug-28 11:33N 46°12' W 126°17'1515.5
2016-Aug-28 10:34N 46°11' W 126°40'1615.6
2016-Aug-28 09:33N 46°11' W 127°02'1915.8
2016-Aug-28 08:22N 46°11' W 127°30'  

Dump ship's entire track history